Following are Alpine Race Results and Penalty Report


Ski Race Results generated by:
     Split Second Race Software, Alpine/Snowboard/Cross Country Version 6.81 Revision 4
     Software written by Split Second, Inc.   www.SplitSecond.com


~~~~~~~~~~~~~~~~~~~~~~~~~~~~~~~~~~~~~~~~~~~~~~~~~~~~~~~~~~~~~~~~~~~~~~~~~~~~~~~~
                              U.S. SKI & SNOWBOARD                              

                         PARK CITY IMC-U16 SL QUALIFIER                         

                            NAT RACE CODE No. U0178                             
PARK CITY SKI AND SNOWBOARD                                    FEBRUARY 12, 2018
Park City Mountain                                                 INTERMOUNTAIN
--------------------------------------------------------------------------------

                             S L A L O M     M E N                              
                                OFFICIAL RESULTS                                

JURY                                          TECHNICAL DATA

TD               Evans, Walt          (USA)   COURSE                      PAYDAY
REFEREE          Wood, Fritz          (USA)   START                       2295 M
CHIEF OF RACE    Buchar, John         (USA)   FINISH                      2155 M
                                              VERTICAL DROP                140 M
                                              
                                              HOMOLOG.Nr.            10834/01/13


                 1st RUN                          2nd RUN
COURSE SETTER    Puckett, Robert      (USA)       Berman, Riley        (USA)
FORERUNNERS  -A- Lindsey Aten         (USA)   -A- Lindsey Aten         (USA)
             -B- Cole Potter          (USA)   -B- Espen Hunt           (USA)
             -C- Espen Hunt           (USA)   -C- Cole Potter          (USA)
             -D-                              -D- 
             -E-                              -E- 

GATES/DIR CHANGES   53/(52)                          56/(55)
START TIME       10:30                            13:30
WEATHER: LIGHT SNOW           SNOW: MACHINE GROOMED       TEMP. S: -2 C F: -2 C
-----------------------    UNOFFICIAL PENALTY   73.59    -----------------------
                                                                          F=720
 PL BIB  NAT     COMPETITOR---------------------   TIME    TIME    TOTAL    RACE
     Nr  Nr      SURNAME+NAME            CLUB/YR  1stRUN  2ndRUN    TIME  POINTS

  1   2 I6254225 Miller, Max             PCSS/01   41.91   47.02 1:28.93    0.00
  2   7 X6293526 Hoffman, Thomas           RM/02   42.62   47.75 1:30.37   11.66
  3   3 I6251737 Levine, Samuel          PCSS/01   43.34   47.34 1:30.68   14.17
  4 111 I6260583 Grossman, Buey         SVSEF/02   43.31   47.58 1:30.89   15.87
  5   9 I6227870 Louchheim, Carter         RM/02   45.28   46.75 1:32.03   25.10
  6  10 I6265666 Snyder, Charlie        SVSEF/02   43.77   48.43 1:32.20   26.47
  7   4 I6183800 Iacobelli, Cooper       PCSS/01   44.19   48.15 1:32.34   27.61
  8   1 I6389801 Lindstrom, Ridley      SVSEF/02   44.54   48.24 1:32.78   31.17
  9 118 I6212041 Bocock, James             RM/02   43.84   49.46 1:33.30   35.38
 10  21 I6329818 Bigatel, Justin         PCSS/03   44.48   49.44 1:33.92   40.40
 11   8 I6352102 Mallinen, Finn         SVSEF/02   45.21   49.19 1:34.40   44.29
 12  16 I6252951 Biskup, Michal          PCSS/02   44.50   50.21 1:34.71   46.80
 13  19 I6409690 Travis, Gunnar          PCSS/03   45.51   49.76 1:35.27   51.33
 14  17 X6312771 Stock, Lucas             SUN/02   45.85   49.97 1:35.82   55.78
 15  29 I6438642 Deubel, Alex              RM/03   45.62   50.52 1:36.14   58.37


12-02-18 / Park City Mountain       LIST: NLM1018              U0178     SM8 / 1
--------------------------------------------------------------------------------
DATA PROCESSING BY SPLIT SECOND TIMING                           ALGE TIMY2 PXE TIMING
~~~~~~~~~~~~~~~~~~~~~~~~~~~~~~~~~~~ NEW PAGE ~~~~~~~~~~~~~~~~~~~~~~~~~~~~~~~~~~~
                              U.S. SKI & SNOWBOARD                              

                         PARK CITY IMC-U16 SL QUALIFIER                         

                            NAT RACE CODE No. U0178                             
PARK CITY SKI AND SNOWBOARD                                    FEBRUARY 12, 2018
Park City Mountain                                                 INTERMOUNTAIN
--------------------------------------------------------------------------------

 PL BIB  NAT     COMPETITOR---------------------   TIME    TIME    TOTAL    RACE
     Nr  Nr      SURNAME+NAME            CLUB/YR  1stRUN  2ndRUN    TIME  POINTS

 16  22 I6274650 Orfanakis, Nick           RM/03   45.79   51.22 1:37.01   65.42
 17  20 I6410163 Larrow, Driscoll        JHSC/02   46.00   51.39 1:37.39   68.49
 18  15 I6143812 Biskup, Lukasz           IND/00   47.11   50.49 1:37.60   70.19
 19  27 I6428125 Polster, Tay            PCSS/03   46.76   50.98 1:37.74   71.33
 20  47 I6498085 Childress, Jack        BBSEF/03   46.70   51.65 1:38.35   76.27
 21  68 I6355218 Harlow, Zachary         PCSS/02   48.38   51.31 1:39.69   87.12
 22  34 I6400516 Pollard, Jack           PCSS/03   47.99   52.08 1:40.07   90.19
 23  32 I6293353 Weaver, T J             PCSS/03   48.14   52.26 1:40.40   92.86
 24  37 I6463495 Gowe, Nathan           SVSEF/03   47.88   52.68 1:40.56   94.16
 25  28 I6311996 Blackburn, Josh        SVSEF/03   49.35   51.32 1:40.67   95.05
 26  41 I6300416 Young, Tyler            PCSS/03   48.07   52.81 1:40.88   96.75
 27  30 I6326382 Sheppard, Leyton        PCSS/03   47.79   53.15 1:40.94   97.24
 28  25 I6316579 Kanter, Benjamin          SB/01   46.90   54.45 1:41.35  100.56
 29  36 I6323476 Walsh, Jimmy              OV/03   48.52   53.15 1:41.67  103.15
 30  52 I6388141 Pace, Gabriel             OV/03   48.88   53.05 1:41.93  105.25
 31  12 I6261519 Dalton, Luc             PCSS/01   53.16   49.16 1:42.32  108.41
 32  38 I6288355 Hathorne, Wade          PCSS/02   50.14   53.33 1:43.47  117.72
 33  53 I6326480 Sheppard, Sebastian     PCSS/03   49.82   55.52 1:45.34  132.86
 34  39 I6429248 Ulmer, Zander           JHSC/02   55.36   51.22 1:46.58  142.90
 35  56 I6381008 Marx, Ethan            SVSEF/02   51.19   55.50 1:46.69  143.79
 36   5 I6607155 Kato, Hizuki            PCSS/01   58.47   48.48 1:46.95  145.89
 37  42 I6417539 Thompson, Dylan         PCSS/03   51.97   55.02 1:46.99  146.22
 38  57 I6455494 Plavocos, Sutter        PCSS/03   51.83   55.62 1:47.45  149.94
 39  43 I6497898 Witt, Stein             PCSS/03   51.84   56.05 1:47.89  153.51
 40  61 I6092753 Brown, Zach              IND/96   52.08   58.77 1:50.85  177.47
 41  55 I6528211 Faull, James           BBSEF/03   52.85   58.03 1:50.88  177.71
 42  59 I6393268 McCoubrey, Shaw        SVSEF/03   54.50   57.92 1:52.42  190.18
 43  70 I6399853 Waters, Marko             SB/03   54.24   59.53 1:53.77  201.11
 44  67 I6276823 Woodruff, River         MWSC/03   55.76 1:00.27 1:56.03  219.41
 45  71 I6515818 Dobrovinsky, Alex       PCSS/03   54.65 1:01.99 1:56.64  224.35
 46  35 I6336329 Dewolfe, William       SVSEF/03   47.67 1:10.95 1:58.62  240.38
 47  72 I6774110 Webb, Luke                OV/03   58.48 1:01.48 1:59.96  251.23
 48  46 I6415513 Hattrup, Axel          SVSEF/03   49.16 1:11.10 2:00.26  253.66
 49  65 I6555023 Hurley, Willem         TVSEF/03   53.41 1:08.49 2:01.90  266.93
 50   6 I6234308 Swallow, Dalton         PCSS/01 1:13.18   49.67 2:02.85  274.62
 51  66 I6612059 Carey, Ryan               SB/03 1:00.69 1:03.08 2:03.77  282.07
 52  60 I6467585 Carruth, Jett          SVSEF/03 1:09.14   56.09 2:05.23  293.89
 53  62 I6609426 Barrett, Silas            SB/02   56.13 1:09.13 2:05.26  294.14
 54  69 I6423896 Diamond, Bennett        PCSS/03 1:01.96 1:07.09 2:09.05  324.82




12-02-18 / Park City Mountain       LIST: NLM1018              U0178     SM8 / 2
--------------------------------------------------------------------------------
DATA PROCESSING BY SPLIT SECOND TIMING                           ALGE TIMY2 PXE TIMING
~~~~~~~~~~~~~~~~~~~~~~~~~~~~~~~~~~~ NEW PAGE ~~~~~~~~~~~~~~~~~~~~~~~~~~~~~~~~~~~
                              U.S. SKI & SNOWBOARD                              

                         PARK CITY IMC-U16 SL QUALIFIER                         

                            NAT RACE CODE No. U0178                             
PARK CITY SKI AND SNOWBOARD                                    FEBRUARY 12, 2018
Park City Mountain                                                 INTERMOUNTAIN
--------------------------------------------------------------------------------

 PL BIB  NAT     COMPETITOR---------------------   TIME    TIME    TOTAL    RACE
     Nr  Nr      SURNAME+NAME            CLUB/YR  1stRUN  2ndRUN    TIME  POINTS

NOT PERMITTED TO START 1st RUN

DID NOT START 1st RUN
     45 I6604391 Rogers, Jakob           PCSS/03

DID NOT FINISH 1st RUN
     51 I6250930 Paquette, Gabriel      BBSEF/01
     50 I6491675 Romanzi, Cooper        TVSEF/03
     49 X6468607 Percy, Angus              RM/03
     23 I6468378 Moss, Max              SVSEF/02

DISQUALIFIED 1st RUN
     48 I6424881 Hoggan, Andrew          PCSS/02   Gate   27
     40 I6286989 Dean, Shaw             SVSEF/02   Gate    8
     33 I6527564 Liaboe, Johannes       SVSEF/01   Gate   27
     31 I6484834 Hagen, Grant            JHSC/03   Gate   53

NOT PERMITTED TO START 2nd RUN

DID NOT START 2nd RUN
     26 I6587704 Wilcox, Martin          JHSC/02

DID NOT FINISH 2nd RUN
     64 I6423888 Diamond, David          PCSS/03
     63 I6258923 Horsley, Finn             SB/02
     44 I6764863 Janssen, Nicholas       JHSC/03
     24 I6400105 Brown, Benny            PCSS/03
     14 I6412800 Schaede, Jack           PCSS/02
     13 I6250805 Carlson, Niclas         PCSS/99

DISQUALIFIED 2nd RUN
     58 X6588621 Dmitriev, Alexander       SD/01   Gate   56
     54 I6512326 Goodell, Miles          JHSC/03   Gate   46

                                                TECHNICAL DELEGATE

                                                Evans, Walt          (USA)






12-02-18 / Park City Mountain       LIST: NLM1018              U0178     SM8 / 3
--------------------------------------------------------------------------------
DATA PROCESSING BY SPLIT SECOND TIMING                           ALGE TIMY2 PXE TIMING
~~~~~~~~~~~~~~~~~~~~~~~~~~~~~~~~~~~ NEW PAGE ~~~~~~~~~~~~~~~~~~~~~~~~~~~~~~~~~~~
                              U.S. SKI & SNOWBOARD                              

                         PARK CITY IMC-U16 SL QUALIFIER                         

                            NAT RACE CODE No. U0178                             
PARK CITY SKI AND SNOWBOARD                                    FEBRUARY 12, 2018
Park City Mountain                                                 INTERMOUNTAIN
--------------------------------------------------------------------------------
                             S L A L O M     M E N                              
                            NAT PENALTY CALCULATION                             

 THE BEST 10 AT FINISH:

  RACE    BIB    CODE   COMPETITOR                      NAT   BEST 5      RACE
 RESULT   NR.           SURNAME+NAME                 POINTS             POINTS

     1      2 I6254225  Miller, Max                   65.17    65.17      0.00
     2      7 X6293526  Hoffman, Thomas               88.01    88.01     11.66
     3      3 I6251737  Levine, Samuel                82.13    82.13     14.17
     4    111 I6260583  Grossman, Buey                82.06    82.06     15.87
     5      9 I6227870  Louchheim, Carter            114.47
     6     10 I6265666  Snyder, Charlie              108.11
     7      4 I6183800  Iacobelli, Cooper             98.91
     8      1 I6389801  Lindstrom, Ridley             88.48    88.48     31.17
     9    118 I6212041  Bocock, James                135.12
    10     21 I6329818  Bigatel, Justin              151.48

 THE BEST 5 AT START:

     1      2 I6254225  Miller, Max                   65.17
     4    111 I6260583  Grossman, Buey                82.06
     3      3 I6251737  Levine, Samuel                82.13
  DNF2     13 I6250805  Carlson, Niclas               85.51
     2      7 X6293526  Hoffman, Thomas               88.01

TOTALS                                              --------
(B)  NAT POINTS OF BEST 5 AT START                   402.88  --------
(A)  NAT POINTS OF BEST 5 TO FINISH IN TOP 10                 405.85   --------
(C)  RACE POINTS OF CORRESPONDING COMPETITORS                            72.87

CALCULATED PENALTY  405.85 + 402.88 -  72.87 : 10  =                     73.586
                      (A)      (B)      (C)

ROUNDED                                                                  73.59

PENALTY APPLIED:                                                         73.59

                                     _______________________
                                     Evans, Walt          (USA)

12-02-18 / Park City Mountain       LIST: NLM1018              U0178     SM9 / 1
--------------------------------------------------------------------------------
DATA PROCESSING BY SPLIT SECOND TIMING                           ALGE TIMY2 PXE TIMING
~~~~~~~~~~~~~~~~~~~~~~~~~~~~~~~~~~~ NEW PAGE ~~~~~~~~~~~~~~~~~~~~~~~~~~~~~~~~~~~